CheckWX is a tool to help pilots better visualize weather data.  It is not intended as a substitute for an official pre-flight weather briefing.

05:22:11 UTC

KJOT METAR
Joliet Regional Airport
Joliet, Illinois, USA
Current

27 mins ago

KJOT 260455Z AUTO 12008KT 10SM RA BKN090 BKN120 21/16 A2995 RMK AO2 T02140162
Observed
Aug-26 @ 04:55 UTC
Wind
  • 120° at 8 KTS
Visibility
10 SM
Flight Rules
VFR
Conditions
Rain
Cloud Levels
  • Broken at 9,000' AGL
  • Broken at 12,000' AGL
Temperature
21°C / 70°F
Dewpoint
16°C / 61°F
Humidity
73%
Altimeter
29.95" Hg
Pressure
1014.22 hPa
Previous

47 mins ago

KJOT 260435Z AUTO 11006KT 10SM SCT080 BKN100 22/16 A2995 RMK AO2 T02200157
Observed
Aug-26 @ 04:35 UTC
Wind
  • 110° at 6 KTS
Visibility
10 SM
Flight Rules
VFR
Cloud Levels
  • Scattered at 8,000' AGL
  • Broken at 10,000' AGL
Temperature
22°C / 72°F
Dewpoint
16°C / 61°F
Humidity
69%
Altimeter
29.95" Hg
Pressure
1014.22 hPa
Previous

1 hour ago

KJOT 260415Z AUTO 11007KT 10SM SCT080 OVC100 22/16 A2995 RMK AO2 T02200156
Observed
Aug-26 @ 04:15 UTC
Wind
  • 110° at 7 KTS
Visibility
10 SM
Flight Rules
VFR
Cloud Levels
  • Scattered at 8,000' AGL
  • Overcast at 10,000' AGL
Temperature
22°C / 72°F
Dewpoint
16°C / 61°F
Humidity
69%
Altimeter
29.95" Hg
Pressure
1014.22 hPa